Bakerville, South Dakota
Current Conditions -  °F | °C
As of 2:53 AM on Sunday 26 Oct 2014 (Local Time) from KCUT Reporting Station
Clear Clear  
Wind Chill: 12°   Ceiling: Unl
Heat Index: 12°   Visibility: 10mi
Dew Point: -2°   Wind: 8mph
Humidity: 38%   Direction: 260°W
Pressure: 29.85"   Gusts: NA
Location:  43.6653°N, 103.766°W
Report Text: KCUT 260853Z AUTO 26007KT 10SM CLR 12/M02 A2985 RMK AO2 SLP051 T01171022 56018
Loading
Personal Weather Stations






























Interactive Weather Map
Tropical Storm Tracking
New forecast layout! Learn more

10-Day Weather Forecast

Advertisements
Track Severe Weather on mobile